sensor_id;sensor_type;location;lat;lon;timestamp;P1;durP1;ratioP1;P2;durP2;ratioP2
7233;SDS011;3658;47.992;10.158;2023-02-01T00:01:14;2.47;;;1.43;;
7233;SDS011;3658;47.992;10.158;2023-02-01T00:03:41;1.90;;;1.63;;
7233;SDS011;3658;47.992;10.158;2023-02-01T00:06:09;1.40;;;1.30;;
7233;SDS011;3658;47.992;10.158;2023-02-01T00:08:36;2.17;;;1.60;;
7233;SDS011;3658;47.992;10.158;2023-02-01T00:11:05;1.60;;;1.50;;
7233;SDS011;3658;47.992;10.158;2023-02-01T00:13:34;1.80;;;1.40;;
7233;SDS011;3658;47.992;10.158;2023-02-01T00:16:04;4.33;;;1.57;;
7233;SDS011;3658;47.992;10.158;2023-02-01T00:18:32;1.97;;;1.47;;
7233;SDS011;3658;47.992;10.158;2023-02-01T00:21:00;1.50;;;1.40;;
7233;SDS011;3658;47.992;10.158;2023-02-01T00:23:27;1.60;;;1.30;;
7233;SDS011;3658;47.992;10.158;2023-02-01T00:25:54;1.77;;;1.67;;
7233;SDS011;3658;47.992;10.158;2023-02-01T00:28:22;2.37;;;1.47;;
7233;SDS011;3658;47.992;10.158;2023-02-01T00:30:55;1.60;;;1.50;;
7233;SDS011;3658;47.992;10.158;2023-02-01T00:33:23;1.70;;;1.60;;
7233;SDS011;3658;47.992;10.158;2023-02-01T00:35:50;1.60;;;1.50;;
7233;SDS011;3658;47.992;10.158;2023-02-01T00:38:17;1.73;;;1.57;;
7233;SDS011;3658;47.992;10.158;2023-02-01T00:40:44;1.53;;;1.30;;
7233;SDS011;3658;47.992;10.158;2023-02-01T00:43:11;2.20;;;1.60;;
7233;SDS011;3658;47.992;10.158;2023-02-01T00:45:39;1.50;;;1.40;;
7233;SDS011;3658;47.992;10.158;2023-02-01T00:48:06;1.53;;;1.40;;
7233;SDS011;3658;47.992;10.158;2023-02-01T00:50:33;1.70;;;1.60;;
7233;SDS011;3658;47.992;10.158;2023-02-01T00:53:00;1.63;;;1.53;;
7233;SDS011;3658;47.992;10.158;2023-02-01T00:55:27;1.60;;;1.50;;
7233;SDS011;3658;47.992;10.158;2023-02-01T00:57:54;1.60;;;1.50;;
7233;SDS011;3658;47.992;10.158;2023-02-01T01:00:21;1.40;;;1.30;;
7233;SDS011;3658;47.992;10.158;2023-02-01T01:02:49;1.57;;;1.40;;
7233;SDS011;3658;47.992;10.158;2023-02-01T01:05:16;1.57;;;1.47;;
7233;SDS011;3658;47.992;10.158;2023-02-01T01:07:43;1.40;;;1.30;;
7233;SDS011;3658;47.992;10.158;2023-02-01T01:10:10;1.37;;;1.27;;
7233;SDS011;3658;47.992;10.158;2023-02-01T01:12:37;1.60;;;1.40;;
7233;SDS011;3658;47.992;10.158;2023-02-01T01:15:05;1.80;;;1.47;;
7233;SDS011;3658;47.992;10.158;2023-02-01T01:17:32;2.10;;;1.53;;
7233;SDS011;3658;47.992;10.158;2023-02-01T01:20:01;2.47;;;1.50;;
7233;SDS011;3658;47.992;10.158;2023-02-01T01:22:28;1.80;;;1.50;;
7233;SDS011;3658;47.992;10.158;2023-02-01T01:24:55;1.53;;;1.40;;
7233;SDS011;3658;47.992;10.158;2023-02-01T01:27:22;1.70;;;1.60;;
7233;SDS011;3658;47.992;10.158;2023-02-01T01:29:50;1.70;;;1.40;;
7233;SDS011;3658;47.992;10.158;2023-02-01T01:32:17;1.93;;;1.63;;
7233;SDS011;3658;47.992;10.158;2023-02-01T01:34:44;1.83;;;1.60;;
7233;SDS011;3658;47.992;10.158;2023-02-01T01:37:12;1.43;;;1.33;;
7233;SDS011;3658;47.992;10.158;2023-02-01T01:39:39;1.37;;;1.27;;
7233;SDS011;3658;47.992;10.158;2023-02-01T01:42:08;1.90;;;1.67;;
7233;SDS011;3658;47.992;10.158;2023-02-01T01:44:56;1.47;;;1.37;;
7233;SDS011;3658;47.992;10.158;2023-02-01T01:47:26;1.60;;;1.33;;
7233;SDS011;3658;47.992;10.158;2023-02-01T01:49:56;1.70;;;1.40;;
7233;SDS011;3658;47.992;10.158;2023-02-01T01:52:25;2.17;;;1.50;;
7233;SDS011;3658;47.992;10.158;2023-02-01T01:54:52;1.37;;;1.27;;
7233;SDS011;3658;47.992;10.158;2023-02-01T01:57:21;1.40;;;1.30;;
7233;SDS011;3658;47.992;10.158;2023-02-01T01:59:53;1.33;;;1.23;;
7233;SDS011;3658;47.992;10.158;2023-02-01T02:02:22;1.60;;;1.50;;
7233;SDS011;3658;47.992;10.158;2023-02-01T02:04:50;1.73;;;1.53;;
7233;SDS011;3658;47.992;10.158;2023-02-01T02:07:19;1.60;;;1.40;;
7233;SDS011;3658;47.992;10.158;2023-02-01T02:09:52;1.20;;;1.10;;
7233;SDS011;3658;47.992;10.158;2023-02-01T02:12:19;1.60;;;1.50;;
7233;SDS011;3658;47.992;10.158;2023-02-01T02:14:46;2.07;;;1.37;;
7233;SDS011;3658;47.992;10.158;2023-02-01T02:17:19;1.73;;;1.60;;
7233;SDS011;3658;47.992;10.158;2023-02-01T02:23:12;1.40;;;1.30;;
7233;SDS011;3658;47.992;10.158;2023-02-01T02:26:03;1.50;;;1.33;;
7233;SDS011;3658;47.992;10.158;2023-02-01T02:29:06;1.40;;;1.20;;
7233;SDS011;3658;47.992;10.158;2023-02-01T02:31:54;1.60;;;1.20;;
7233;SDS011;3658;47.992;10.158;2023-02-01T02:34:35;1.47;;;1.20;;
7233;SDS011;3658;47.992;10.158;2023-02-01T02:37:07;1.37;;;1.27;;
7233;SDS011;3658;47.992;10.158;2023-02-01T02:39:46;1.43;;;1.33;;
7233;SDS011;3658;47.992;10.158;2023-02-01T02:42:21;1.40;;;1.30;;
7233;SDS011;3658;47.992;10.158;2023-02-01T02:45:13;1.30;;;1.20;;
7233;SDS011;3658;47.992;10.158;2023-02-01T02:48:05;1.30;;;1.20;;
7233;SDS011;3658;47.992;10.158;2023-02-01T02:50:42;1.30;;;1.20;;
7233;SDS011;3658;47.992;10.158;2023-02-01T02:53:32;1.50;;;1.40;;
7233;SDS011;3658;47.992;10.158;2023-02-01T02:56:21;1.60;;;1.50;;
7233;SDS011;3658;47.992;10.158;2023-02-01T02:59:08;1.63;;;1.23;;
7233;SDS011;3658;47.992;10.158;2023-02-01T03:01:55;1.63;;;1.33;;
7233;SDS011;3658;47.992;10.158;2023-02-01T03:04:40;1.43;;;1.33;;
7233;SDS011;3658;47.992;10.158;2023-02-01T03:07:13;1.60;;;1.50;;
7233;SDS011;3658;47.992;10.158;2023-02-01T03:10:01;1.30;;;1.20;;
7233;SDS011;3658;47.992;10.158;2023-02-01T03:12:31;1.77;;;1.40;;
7233;SDS011;3658;47.992;10.158;2023-02-01T03:15:22;1.87;;;1.50;;
7233;SDS011;3658;47.992;10.158;2023-02-01T03:17:53;1.60;;;1.30;;
7233;SDS011;3658;47.992;10.158;2023-02-01T03:20:24;1.50;;;1.40;;
7233;SDS011;3658;47.992;10.158;2023-02-01T03:22:53;1.60;;;1.37;;
7233;SDS011;3658;47.992;10.158;2023-02-01T03:25:22;1.40;;;1.30;;
7233;SDS011;3658;47.992;10.158;2023-02-01T03:27:53;1.30;;;1.20;;
7233;SDS011;3658;47.992;10.158;2023-02-01T03:30:24;1.50;;;1.40;;
7233;SDS011;3658;47.992;10.158;2023-02-01T03:32:54;1.47;;;1.37;;
7233;SDS011;3658;47.992;10.158;2023-02-01T03:35:25;1.60;;;1.50;;
7233;SDS011;3658;47.992;10.158;2023-02-01T03:37:59;1.50;;;1.40;;
7233;SDS011;3658;47.992;10.158;2023-02-01T03:40:30;1.30;;;1.20;;
7233;SDS011;3658;47.992;10.158;2023-02-01T03:43:00;1.37;;;1.27;;
7233;SDS011;3658;47.992;10.158;2023-02-01T03:45:31;1.73;;;1.50;;
7233;SDS011;3658;47.992;10.158;2023-02-01T03:48:04;1.53;;;1.40;;
7233;SDS011;3658;47.992;10.158;2023-02-01T03:50:32;1.40;;;1.30;;
7233;SDS011;3658;47.992;10.158;2023-02-01T03:53:05;1.73;;;1.63;;
7233;SDS011;3658;47.992;10.158;2023-02-01T03:55:35;2.30;;;1.53;;
7233;SDS011;3658;47.992;10.158;2023-02-01T03:58:04;1.30;;;1.20;;
7233;SDS011;3658;47.992;10.158;2023-02-01T04:00:35;1.47;;;1.37;;
7233;SDS011;3658;47.992;10.158;2023-02-01T04:03:02;1.40;;;1.30;;
7233;SDS011;3658;47.992;10.158;2023-02-01T04:05:31;1.47;;;1.37;;
7233;SDS011;3658;47.992;10.158;2023-02-01T04:07:58;2.20;;;1.40;;
7233;SDS011;3658;47.992;10.158;2023-02-01T04:10:27;1.57;;;1.47;;
7233;SDS011;3658;47.992;10.158;2023-02-01T04:12:54;1.50;;;1.40;;
7233;SDS011;3658;47.992;10.158;2023-02-01T04:15:21;1.50;;;1.40;;
7233;SDS011;3658;47.992;10.158;2023-02-01T04:17:48;1.20;;;1.10;;
7233;SDS011;3658;47.992;10.158;2023-02-01T04:20:15;2.10;;;1.50;;
7233;SDS011;3658;47.992;10.158;2023-02-01T04:22:42;1.60;;;1.50;;
7233;SDS011;3658;47.992;10.158;2023-02-01T04:25:10;1.60;;;1.47;;
7233;SDS011;3658;47.992;10.158;2023-02-01T04:27:38;1.40;;;1.30;;
7233;SDS011;3658;47.992;10.158;2023-02-01T04:30:05;1.70;;;1.40;;
7233;SDS011;3658;47.992;10.158;2023-02-01T04:32:34;1.47;;;1.37;;
7233;SDS011;3658;47.992;10.158;2023-02-01T04:35:01;1.53;;;1.30;;
7233;SDS011;3658;47.992;10.158;2023-02-01T04:37:29;1.30;;;1.20;;
7233;SDS011;3658;47.992;10.158;2023-02-01T04:39:56;2.03;;;1.37;;
7233;SDS011;3658;47.992;10.158;2023-02-01T04:42:22;1.67;;;1.50;;
7233;SDS011;3658;47.992;10.158;2023-02-01T04:44:51;1.40;;;1.27;;
7233;SDS011;3658;47.992;10.158;2023-02-01T04:47:18;1.30;;;1.20;;
7233;SDS011;3658;47.992;10.158;2023-02-01T04:49:45;1.40;;;1.30;;
7233;SDS011;3658;47.992;10.158;2023-02-01T04:52:12;1.20;;;1.10;;
7233;SDS011;3658;47.992;10.158;2023-02-01T04:54:39;1.50;;;1.40;;
7233;SDS011;3658;47.992;10.158;2023-02-01T04:57:06;1.67;;;1.47;;
7233;SDS011;3658;47.992;10.158;2023-02-01T04:59:33;1.70;;;1.60;;
7233;SDS011;3658;47.992;10.158;2023-02-01T05:02:01;1.43;;;1.33;;
7233;SDS011;3658;47.992;10.158;2023-02-01T05:04:28;1.40;;;1.30;;
7233;SDS011;3658;47.992;10.158;2023-02-01T05:06:55;1.30;;;1.20;;
7233;SDS011;3658;47.992;10.158;2023-02-01T05:09:22;1.40;;;1.30;;
7233;SDS011;3658;47.992;10.158;2023-02-01T05:11:50;1.57;;;1.47;;
7233;SDS011;3658;47.992;10.158;2023-02-01T05:14:34;1.60;;;1.50;;
7233;SDS011;3658;47.992;10.158;2023-02-01T05:17:02;1.30;;;1.20;;
7233;SDS011;3658;47.992;10.158;2023-02-01T05:19:29;1.50;;;1.40;;
7233;SDS011;3658;47.992;10.158;2023-02-01T05:21:56;1.93;;;1.50;;
7233;SDS011;3658;47.992;10.158;2023-02-01T05:24:23;1.70;;;1.40;;
7233;SDS011;3658;47.992;10.158;2023-02-01T05:26:52;1.73;;;1.40;;
7233;SDS011;3658;47.992;10.158;2023-02-01T05:29:19;2.03;;;1.50;;
7233;SDS011;3658;47.992;10.158;2023-02-01T05:31:46;1.87;;;1.40;;
7233;SDS011;3658;47.992;10.158;2023-02-01T05:34:15;1.50;;;1.40;;
7233;SDS011;3658;47.992;10.158;2023-02-01T05:36:42;1.30;;;1.20;;
7233;SDS011;3658;47.992;10.158;2023-02-01T05:39:09;1.60;;;1.47;;
7233;SDS011;3658;47.992;10.158;2023-02-01T05:41:36;1.50;;;1.40;;
7233;SDS011;3658;47.992;10.158;2023-02-01T05:44:04;1.60;;;1.30;;
7233;SDS011;3658;47.992;10.158;2023-02-01T05:46:32;2.33;;;1.50;;
7233;SDS011;3658;47.992;10.158;2023-02-01T05:48:59;1.60;;;1.50;;
7233;SDS011;3658;47.992;10.158;2023-02-01T05:51:28;1.30;;;1.20;;
7233;SDS011;3658;47.992;10.158;2023-02-01T05:53:55;1.23;;;1.17;;
7233;SDS011;3658;47.992;10.158;2023-02-01T05:56:22;1.30;;;1.20;;
7233;SDS011;3658;47.992;10.158;2023-02-01T05:58:49;1.50;;;1.40;;
7233;SDS011;3658;47.992;10.158;2023-02-01T06:01:16;1.57;;;1.47;;
7233;SDS011;3658;47.992;10.158;2023-02-01T06:03:43;1.80;;;1.50;;
7233;SDS011;3658;47.992;10.158;2023-02-01T06:06:10;1.40;;;1.30;;
7233;SDS011;3658;47.992;10.158;2023-02-01T06:08:38;1.50;;;1.40;;
7233;SDS011;3658;47.992;10.158;2023-02-01T06:11:06;1.67;;;1.50;;
7233;SDS011;3658;47.992;10.158;2023-02-01T06:13:33;1.50;;;1.40;;
7233;SDS011;3658;47.992;10.158;2023-02-01T06:16:01;1.50;;;1.40;;
7233;SDS011;3658;47.992;10.158;2023-02-01T06:18:28;1.97;;;1.20;;
7233;SDS011;3658;47.992;10.158;2023-02-01T06:20:56;1.50;;;1.40;;
7233;SDS011;3658;47.992;10.158;2023-02-01T06:23:25;1.40;;;1.30;;
7233;SDS011;3658;47.992;10.158;2023-02-01T06:25:57;1.57;;;1.40;;
7233;SDS011;3658;47.992;10.158;2023-02-01T06:28:25;1.67;;;1.57;;
7233;SDS011;3658;47.992;10.158;2023-02-01T06:30:54;1.93;;;1.70;;
7233;SDS011;3658;47.992;10.158;2023-02-01T06:33:22;1.33;;;1.23;;
7233;SDS011;3658;47.992;10.158;2023-02-01T06:35:55;1.83;;;1.50;;
7233;SDS011;3658;47.992;10.158;2023-02-01T06:38:23;1.57;;;1.47;;
7233;SDS011;3658;47.992;10.158;2023-02-01T06:40:51;1.77;;;1.67;;
7233;SDS011;3658;47.992;10.158;2023-02-01T06:43:21;1.50;;;1.40;;
7233;SDS011;3658;47.992;10.158;2023-02-01T06:45:48;3.50;;;1.80;;
7233;SDS011;3658;47.992;10.158;2023-02-01T06:48:15;1.40;;;1.30;;
7233;SDS011;3658;47.992;10.158;2023-02-01T06:50:42;1.50;;;1.20;;
7233;SDS011;3658;47.992;10.158;2023-02-01T06:53:09;3.63;;;1.50;;
7233;SDS011;3658;47.992;10.158;2023-02-01T06:55:36;3.83;;;1.70;;
7233;SDS011;3658;47.992;10.158;2023-02-01T06:58:05;1.57;;;1.47;;
7233;SDS011;3658;47.992;10.158;2023-02-01T07:00:32;2.07;;;1.53;;
7233;SDS011;3658;47.992;10.158;2023-02-01T07:02:59;1.63;;;1.40;;
7233;SDS011;3658;47.992;10.158;2023-02-01T07:05:27;3.47;;;1.50;;
7233;SDS011;3658;47.992;10.158;2023-02-01T07:07:54;1.57;;;1.30;;
7233;SDS011;3658;47.992;10.158;2023-02-01T07:10:21;3.20;;;1.53;;
7233;SDS011;3658;47.992;10.158;2023-02-01T07:12:48;4.07;;;1.70;;
7233;SDS011;3658;47.992;10.158;2023-02-01T07:15:19;2.70;;;1.33;;
7233;SDS011;3658;47.992;10.158;2023-02-01T07:17:46;4.67;;;1.60;;
7233;SDS011;3658;47.992;10.158;2023-02-01T07:20:14;1.70;;;1.53;;
7233;SDS011;3658;47.992;10.158;2023-02-01T07:22:41;2.10;;;1.60;;
7233;SDS011;3658;47.992;10.158;2023-02-01T07:25:08;2.73;;;1.60;;
7233;SDS011;3658;47.992;10.158;2023-02-01T07:27:35;2.80;;;1.50;;
7233;SDS011;3658;47.992;10.158;2023-02-01T07:30:03;3.87;;;1.50;;
7233;SDS011;3658;47.992;10.158;2023-02-01T07:32:33;2.97;;;1.60;;
7233;SDS011;3658;47.992;10.158;2023-02-01T07:35:00;1.33;;;1.23;;
7233;SDS011;3658;47.992;10.158;2023-02-01T07:37:27;3.50;;;1.70;;
7233;SDS011;3658;47.992;10.158;2023-02-01T07:39:54;1.30;;;1.20;;
7233;SDS011;3658;47.992;10.158;2023-02-01T07:42:21;1.53;;;1.43;;
7233;SDS011;3658;47.992;10.158;2023-02-01T07:44:48;1.73;;;1.47;;
7233;SDS011;3658;47.992;10.158;2023-02-01T07:47:15;2.27;;;1.50;;
7233;SDS011;3658;47.992;10.158;2023-02-01T07:49:44;4.33;;;1.50;;
7233;SDS011;3658;47.992;10.158;2023-02-01T07:52:10;1.50;;;1.40;;
7233;SDS011;3658;47.992;10.158;2023-02-01T07:54:38;5.50;;;1.73;;
7233;SDS011;3658;47.992;10.158;2023-02-01T07:57:05;1.50;;;1.40;;
7233;SDS011;3658;47.992;10.158;2023-02-01T07:59:33;1.70;;;1.43;;
7233;SDS011;3658;47.992;10.158;2023-02-01T08:02:00;3.63;;;1.80;;
7233;SDS011;3658;47.992;10.158;2023-02-01T08:04:26;1.50;;;1.30;;
7233;SDS011;3658;47.992;10.158;2023-02-01T08:06:55;1.93;;;1.33;;
7233;SDS011;3658;47.992;10.158;2023-02-01T08:09:22;2.70;;;1.27;;
7233;SDS011;3658;47.992;10.158;2023-02-01T08:11:49;2.37;;;1.40;;
7233;SDS011;3658;47.992;10.158;2023-02-01T08:14:16;1.40;;;1.30;;
7233;SDS011;3658;47.992;10.158;2023-02-01T08:16:43;1.87;;;1.40;;
7233;SDS011;3658;47.992;10.158;2023-02-01T08:19:10;1.40;;;1.30;;
7233;SDS011;3658;47.992;10.158;2023-02-01T08:21:37;1.73;;;1.30;;
7233;SDS011;3658;47.992;10.158;2023-02-01T08:24:06;2.10;;;1.57;;
7233;SDS011;3658;47.992;10.158;2023-02-01T08:26:35;4.07;;;1.80;;
7233;SDS011;3658;47.992;10.158;2023-02-01T08:29:02;3.60;;;1.60;;
7233;SDS011;3658;47.992;10.158;2023-02-01T08:31:31;1.83;;;1.30;;
7233;SDS011;3658;47.992;10.158;2023-02-01T08:33:58;2.40;;;1.50;;
7233;SDS011;3658;47.992;10.158;2023-02-01T08:36:27;1.80;;;1.50;;
7233;SDS011;3658;47.992;10.158;2023-02-01T08:38:56;1.40;;;1.30;;
7233;SDS011;3658;47.992;10.158;2023-02-01T08:41:26;2.60;;;1.30;;
7233;SDS011;3658;47.992;10.158;2023-02-01T08:43:54;2.70;;;1.47;;
7233;SDS011;3658;47.992;10.158;2023-02-01T08:46:22;2.70;;;1.30;;
7233;SDS011;3658;47.992;10.158;2023-02-01T08:48:50;2.70;;;1.40;;
7233;SDS011;3658;47.992;10.158;2023-02-01T08:51:17;2.23;;;1.30;;
7233;SDS011;3658;47.992;10.158;2023-02-01T08:53:46;3.00;;;1.40;;
7233;SDS011;3658;47.992;10.158;2023-02-01T08:56:14;1.47;;;1.37;;
7233;SDS011;3658;47.992;10.158;2023-02-01T09:01:31;2.97;;;1.50;;
7233;SDS011;3658;47.992;10.158;2023-02-01T09:03:58;2.70;;;1.60;;
7233;SDS011;3658;47.992;10.158;2023-02-01T09:06:25;2.53;;;1.53;;
7233;SDS011;3658;47.992;10.158;2023-02-01T09:08:52;1.40;;;1.30;;
7233;SDS011;3658;47.992;10.158;2023-02-01T09:11:20;3.77;;;1.27;;
7233;SDS011;3658;47.992;10.158;2023-02-01T09:13:47;3.70;;;1.43;;
7233;SDS011;3658;47.992;10.158;2023-02-01T09:16:16;3.33;;;1.37;;
7233;SDS011;3658;47.992;10.158;2023-02-01T09:18:43;1.77;;;1.37;;
7233;SDS011;3658;47.992;10.158;2023-02-01T09:21:10;1.63;;;1.30;;
7233;SDS011;3658;47.992;10.158;2023-02-01T09:23:37;1.60;;;1.50;;
7233;SDS011;3658;47.992;10.158;2023-02-01T09:26:05;1.57;;;1.40;;
7233;SDS011;3658;47.992;10.158;2023-02-01T09:28:32;1.30;;;1.20;;
7233;SDS011;3658;47.992;10.158;2023-02-01T09:30:59;1.30;;;1.20;;
7233;SDS011;3658;47.992;10.158;2023-02-01T09:33:28;2.83;;;1.47;;
7233;SDS011;3658;47.992;10.158;2023-02-01T09:35:56;1.20;;;1.10;;
7233;SDS011;3658;47.992;10.158;2023-02-01T09:38:24;1.40;;;1.30;;
7233;SDS011;3658;47.992;10.158;2023-02-01T09:40:52;1.30;;;1.20;;
7233;SDS011;3658;47.992;10.158;2023-02-01T09:43:27;1.73;;;1.40;;
7233;SDS011;3658;47.992;10.158;2023-02-01T09:46:07;1.40;;;1.30;;
7233;SDS011;3658;47.992;10.158;2023-02-01T09:48:46;1.57;;;1.43;;
7233;SDS011;3658;47.992;10.158;2023-02-01T09:51:15;1.37;;;1.20;;
7233;SDS011;3658;47.992;10.158;2023-02-01T09:53:47;1.43;;;1.23;;
7233;SDS011;3658;47.992;10.158;2023-02-01T09:56:26;1.60;;;1.40;;
7233;SDS011;3658;47.992;10.158;2023-02-01T09:59:01;2.10;;;1.30;;
7233;SDS011;3658;47.992;10.158;2023-02-01T10:01:35;2.70;;;1.30;;
7233;SDS011;3658;47.992;10.158;2023-02-01T10:04:05;2.87;;;1.50;;
7233;SDS011;3658;47.992;10.158;2023-02-01T10:06:41;5.33;;;1.23;;
7233;SDS011;3658;47.992;10.158;2023-02-01T10:09:22;1.63;;;1.30;;
7233;SDS011;3658;47.992;10.158;2023-02-01T10:12:09;1.10;;;1.00;;
7233;SDS011;3658;47.992;10.158;2023-02-01T10:14:59;1.67;;;1.17;;
7233;SDS011;3658;47.992;10.158;2023-02-01T10:17:41;1.20;;;1.10;;
7233;SDS011;3658;47.992;10.158;2023-02-01T10:20:17;1.37;;;1.20;;
7233;SDS011;3658;47.992;10.158;2023-02-01T10:22:53;1.40;;;1.30;;
7233;SDS011;3658;47.992;10.158;2023-02-01T10:25:33;1.93;;;1.30;;
7233;SDS011;3658;47.992;10.158;2023-02-01T10:28:06;1.27;;;1.17;;
7233;SDS011;3658;47.992;10.158;2023-02-01T10:30:40;1.50;;;1.40;;
7233;SDS011;3658;47.992;10.158;2023-02-01T10:33:14;1.40;;;1.30;;
7233;SDS011;3658;47.992;10.158;2023-02-01T10:35:43;1.93;;;1.20;;
7233;SDS011;3658;47.992;10.158;2023-02-01T10:38:15;1.40;;;1.30;;
7233;SDS011;3658;47.992;10.158;2023-02-01T10:40:46;1.27;;;1.13;;
7233;SDS011;3658;47.992;10.158;2023-02-01T10:43:13;1.93;;;1.30;;
7233;SDS011;3658;47.992;10.158;2023-02-01T10:45:40;2.37;;;1.20;;
7233;SDS011;3658;47.992;10.158;2023-02-01T10:48:09;1.10;;;1.00;;
7233;SDS011;3658;47.992;10.158;2023-02-01T10:50:37;1.30;;;1.20;;
7233;SDS011;3658;47.992;10.158;2023-02-01T10:53:11;1.60;;;1.30;;
7233;SDS011;3658;47.992;10.158;2023-02-01T10:55:46;1.30;;;1.20;;
7233;SDS011;3658;47.992;10.158;2023-02-01T10:58:16;1.47;;;1.37;;
7233;SDS011;3658;47.992;10.158;2023-02-01T11:00:49;2.97;;;1.20;;
7233;SDS011;3658;47.992;10.158;2023-02-01T11:03:31;2.13;;;1.30;;
7233;SDS011;3658;47.992;10.158;2023-02-01T11:06:09;2.30;;;1.20;;
7233;SDS011;3658;47.992;10.158;2023-02-01T11:08:46;1.97;;;1.30;;
7233;SDS011;3658;47.992;10.158;2023-02-01T11:11:16;2.87;;;1.30;;
7233;SDS011;3658;47.992;10.158;2023-02-01T11:13:43;1.87;;;1.20;;
7233;SDS011;3658;47.992;10.158;2023-02-01T11:16:11;1.20;;;1.10;;
7233;SDS011;3658;47.992;10.158;2023-02-01T11:18:40;3.27;;;1.23;;
7233;SDS011;3658;47.992;10.158;2023-02-01T11:21:08;2.47;;;1.30;;
7233;SDS011;3658;47.992;10.158;2023-02-01T11:23:39;3.90;;;1.40;;
7233;SDS011;3658;47.992;10.158;2023-02-01T11:26:19;4.33;;;1.50;;
7233;SDS011;3658;47.992;10.158;2023-02-01T11:28:50;1.30;;;1.20;;
7233;SDS011;3658;47.992;10.158;2023-02-01T11:31:20;5.90;;;1.77;;
7233;SDS011;3658;47.992;10.158;2023-02-01T11:33:50;1.93;;;1.60;;
7233;SDS011;3658;47.992;10.158;2023-02-01T11:36:20;4.27;;;1.60;;
7233;SDS011;3658;47.992;10.158;2023-02-01T11:38:51;4.33;;;1.70;;
7233;SDS011;3658;47.992;10.158;2023-02-01T11:41:22;4.27;;;1.50;;
7233;SDS011;3658;47.992;10.158;2023-02-01T11:43:52;6.53;;;1.67;;
7233;SDS011;3658;47.992;10.158;2023-02-01T11:46:22;2.43;;;1.70;;
7233;SDS011;3658;47.992;10.158;2023-02-01T11:48:53;6.17;;;1.80;;
7233;SDS011;3658;47.992;10.158;2023-02-01T11:51:32;2.73;;;1.90;;
7233;SDS011;3658;47.992;10.158;2023-02-01T11:54:08;2.27;;;1.70;;
7233;SDS011;3658;47.992;10.158;2023-02-01T11:56:47;2.30;;;1.80;;
7233;SDS011;3658;47.992;10.158;2023-02-01T11:59:30;2.03;;;1.73;;
7233;SDS011;3658;47.992;10.158;2023-02-01T12:02:23;3.73;;;1.57;;
7233;SDS011;3658;47.992;10.158;2023-02-01T12:05:16;4.07;;;1.60;;
7233;SDS011;3658;47.992;10.158;2023-02-01T12:10:56;4.17;;;1.60;;
7233;SDS011;3658;47.992;10.158;2023-02-01T12:13:38;1.83;;;1.43;;
7233;SDS011;3658;47.992;10.158;2023-02-01T12:16:17;4.40;;;1.70;;
7233;SDS011;3658;47.992;10.158;2023-02-01T12:19:16;4.17;;;1.67;;
7233;SDS011;3658;47.992;10.158;2023-02-01T12:21:56;9.43;;;1.90;;
7233;SDS011;3658;47.992;10.158;2023-02-01T12:24:49;4.10;;;2.07;;
7233;SDS011;3658;47.992;10.158;2023-02-01T12:27:49;2.43;;;1.90;;
7233;SDS011;3658;47.992;10.158;2023-02-01T12:30:52;3.90;;;1.83;;
7233;SDS011;3658;47.992;10.158;2023-02-01T12:33:31;3.00;;;2.07;;
7233;SDS011;3658;47.992;10.158;2023-02-01T12:36:09;2.83;;;2.17;;
7233;SDS011;3658;47.992;10.158;2023-02-01T12:38:45;2.67;;;2.10;;
7233;SDS011;3658;47.992;10.158;2023-02-01T12:41:28;3.03;;;1.87;;
7233;SDS011;3658;47.992;10.158;2023-02-01T12:44:18;2.87;;;1.80;;
7233;SDS011;3658;47.992;10.158;2023-02-01T12:46:56;3.27;;;2.17;;
7233;SDS011;3658;47.992;10.158;2023-02-01T12:49:28;2.63;;;1.83;;
7233;SDS011;3658;47.992;10.158;2023-02-01T12:52:12;3.10;;;2.10;;
7233;SDS011;3658;47.992;10.158;2023-02-01T12:54:44;2.23;;;2.03;;
7233;SDS011;3658;47.992;10.158;2023-02-01T12:57:15;2.57;;;2.10;;
7233;SDS011;3658;47.992;10.158;2023-02-01T12:59:48;2.37;;;1.80;;
7233;SDS011;3658;47.992;10.158;2023-02-01T13:02:24;2.30;;;1.90;;
7233;SDS011;3658;47.992;10.158;2023-02-01T13:04:59;3.10;;;2.13;;
7233;SDS011;3658;47.992;10.158;2023-02-01T13:07:31;3.03;;;2.07;;
7233;SDS011;3658;47.992;10.158;2023-02-01T13:10:05;2.03;;;1.80;;
7233;SDS011;3658;47.992;10.158;2023-02-01T13:12:43;2.50;;;1.90;;
7233;SDS011;3658;47.992;10.158;2023-02-01T13:15:20;2.67;;;1.97;;
7233;SDS011;3658;47.992;10.158;2023-02-01T13:17:52;3.17;;;2.00;;
7233;SDS011;3658;47.992;10.158;2023-02-01T13:20:25;2.90;;;2.00;;
7233;SDS011;3658;47.992;10.158;2023-02-01T13:22:58;2.00;;;1.80;;
7233;SDS011;3658;47.992;10.158;2023-02-01T13:25:29;2.50;;;2.20;;
7233;SDS011;3658;47.992;10.158;2023-02-01T13:28:02;3.30;;;2.40;;
7233;SDS011;3658;47.992;10.158;2023-02-01T13:30:36;3.17;;;2.60;;
7233;SDS011;3658;47.992;10.158;2023-02-01T13:33:19;3.93;;;2.60;;
7233;SDS011;3658;47.992;10.158;2023-02-01T13:36:10;3.87;;;2.30;;
7233;SDS011;3658;47.992;10.158;2023-02-01T13:42:20;3.17;;;2.20;;
7233;SDS011;3658;47.992;10.158;2023-02-01T13:44:50;3.27;;;2.47;;
7233;SDS011;3658;47.992;10.158;2023-02-01T13:47:23;4.67;;;2.33;;
7233;SDS011;3658;47.992;10.158;2023-02-01T13:49:55;5.47;;;2.27;;
7233;SDS011;3658;47.992;10.158;2023-02-01T13:52:31;3.70;;;1.97;;
7233;SDS011;3658;47.992;10.158;2023-02-01T13:55:13;3.77;;;1.70;;
7233;SDS011;3658;47.992;10.158;2023-02-01T13:57:59;3.27;;;1.63;;
7233;SDS011;3658;47.992;10.158;2023-02-01T14:00:42;1.60;;;1.50;;
7233;SDS011;3658;47.992;10.158;2023-02-01T14:03:14;2.53;;;1.60;;
7233;SDS011;3658;47.992;10.158;2023-02-01T14:06:00;1.97;;;1.53;;
7233;SDS011;3658;47.992;10.158;2023-02-01T14:08:45;3.87;;;1.80;;
7233;SDS011;3658;47.992;10.158;2023-02-01T14:11:33;4.30;;;1.63;;
7233;SDS011;3658;47.992;10.158;2023-02-01T14:14:07;4.33;;;1.80;;
7233;SDS011;3658;47.992;10.158;2023-02-01T14:17:29;3.10;;;2.23;;
7233;SDS011;3658;47.992;10.158;2023-02-01T14:23:04;5.33;;;1.70;;
7233;SDS011;3658;47.992;10.158;2023-02-01T14:25:38;4.47;;;1.60;;
7233;SDS011;3658;47.992;10.158;2023-02-01T14:28:10;3.37;;;1.60;;
7233;SDS011;3658;47.992;10.158;2023-02-01T14:30:38;2.30;;;1.73;;
7233;SDS011;3658;47.992;10.158;2023-02-01T14:33:12;2.20;;;1.50;;
7233;SDS011;3658;47.992;10.158;2023-02-01T14:35:54;4.83;;;1.60;;
7233;SDS011;3658;47.992;10.158;2023-02-01T14:38:30;3.50;;;1.57;;
7233;SDS011;3658;47.992;10.158;2023-02-01T14:41:10;3.13;;;1.83;;
7233;SDS011;3658;47.992;10.158;2023-02-01T14:43:51;8.83;;;1.63;;
7233;SDS011;3658;47.992;10.158;2023-02-01T14:49:36;4.00;;;1.73;;
7233;SDS011;3658;47.992;10.158;2023-02-01T14:52:06;1.70;;;1.47;;
7233;SDS011;3658;47.992;10.158;2023-02-01T14:54:40;2.17;;;1.33;;
7233;SDS011;3658;47.992;10.158;2023-02-01T14:57:12;3.23;;;1.50;;
7233;SDS011;3658;47.992;10.158;2023-02-01T14:59:42;2.40;;;1.50;;
7233;SDS011;3658;47.992;10.158;2023-02-01T15:02:17;1.60;;;1.30;;
7233;SDS011;3658;47.992;10.158;2023-02-01T15:04:50;2.10;;;1.40;;
7233;SDS011;3658;47.992;10.158;2023-02-01T15:07:20;1.57;;;1.30;;
7233;SDS011;3658;47.992;10.158;2023-02-01T15:09:51;2.00;;;1.40;;
7233;SDS011;3658;47.992;10.158;2023-02-01T15:12:23;1.23;;;1.13;;
7233;SDS011;3658;47.992;10.158;2023-02-01T15:15:12;1.90;;;1.40;;
7233;SDS011;3658;47.992;10.158;2023-02-01T15:17:41;1.63;;;1.30;;
7233;SDS011;3658;47.992;10.158;2023-02-01T15:20:16;1.30;;;1.20;;
7233;SDS011;3658;47.992;10.158;2023-02-01T15:22:52;2.33;;;1.70;;
7233;SDS011;3658;47.992;10.158;2023-02-01T15:25:22;2.40;;;1.67;;
7233;SDS011;3658;47.992;10.158;2023-02-01T15:27:51;2.50;;;1.10;;
7233;SDS011;3658;47.992;10.158;2023-02-01T15:30:19;1.70;;;1.50;;
7233;SDS011;3658;47.992;10.158;2023-02-01T15:32:48;1.80;;;1.37;;
7233;SDS011;3658;47.992;10.158;2023-02-01T15:35:35;1.30;;;1.20;;
7233;SDS011;3658;47.992;10.158;2023-02-01T15:38:18;3.40;;;1.20;;
7233;SDS011;3658;47.992;10.158;2023-02-01T15:40:54;1.53;;;1.20;;
7233;SDS011;3658;47.992;10.158;2023-02-01T15:43:23;1.27;;;1.17;;
7233;SDS011;3658;47.992;10.158;2023-02-01T15:45:51;3.03;;;1.20;;
7233;SDS011;3658;47.992;10.158;2023-02-01T15:48:22;1.20;;;1.10;;